sensor_id;sensor_type;location;lat;lon;timestamp;temperature;humidity
38938;DHT22;24727;51.974;20.868;2024-01-15T00:02:20;0.90;1.00
38938;DHT22;24727;51.974;20.868;2024-01-15T00:04:46;0.90;1.00
38938;DHT22;24727;51.974;20.868;2024-01-15T00:07:12;0.90;1.00
38938;DHT22;24727;51.974;20.868;2024-01-15T00:09:39;0.90;1.00
38938;DHT22;24727;51.974;20.868;2024-01-15T00:12:06;0.90;1.00
38938;DHT22;24727;51.974;20.868;2024-01-15T00:14:32;0.90;1.00
38938;DHT22;24727;51.974;20.868;2024-01-15T00:16:58;0.90;1.00
38938;DHT22;24727;51.974;20.868;2024-01-15T00:19:24;0.90;1.00
38938;DHT22;24727;51.974;20.868;2024-01-15T00:21:50;0.90;1.00
38938;DHT22;24727;51.974;20.868;2024-01-15T00:24:16;0.90;1.00
38938;DHT22;24727;51.974;20.868;2024-01-15T00:26:42;0.90;1.00
38938;DHT22;24727;51.974;20.868;2024-01-15T00:29:08;0.90;1.00
38938;DHT22;24727;51.974;20.868;2024-01-15T00:31:34;0.90;1.00
38938;DHT22;24727;51.974;20.868;2024-01-15T00:34:00;1.00;1.00
38938;DHT22;24727;51.974;20.868;2024-01-15T00:36:26;0.90;1.00
38938;DHT22;24727;51.974;20.868;2024-01-15T00:38:53;0.90;1.00
38938;DHT22;24727;51.974;20.868;2024-01-15T00:41:18;0.90;1.00
38938;DHT22;24727;51.974;20.868;2024-01-15T00:43:45;0.90;1.00
38938;DHT22;24727;51.974;20.868;2024-01-15T00:46:11;0.90;1.00
38938;DHT22;24727;51.974;20.868;2024-01-15T00:48:37;0.80;1.00
38938;DHT22;24727;51.974;20.868;2024-01-15T00:51:04;0.80;1.00
38938;DHT22;24727;51.974;20.868;2024-01-15T00:53:30;0.70;1.00
38938;DHT22;24727;51.974;20.868;2024-01-15T00:55:59;0.70;1.00
38938;DHT22;24727;51.974;20.868;2024-01-15T00:58:26;0.70;1.00
38938;DHT22;24727;51.974;20.868;2024-01-15T01:00:52;0.70;1.00
38938;DHT22;24727;51.974;20.868;2024-01-15T01:03:18;0.70;1.00
38938;DHT22;24727;51.974;20.868;2024-01-15T01:05:43;0.70;1.00
38938;DHT22;24727;51.974;20.868;2024-01-15T01:08:10;0.60;1.00
38938;DHT22;24727;51.974;20.868;2024-01-15T01:10:37;0.60;1.00
38938;DHT22;24727;51.974;20.868;2024-01-15T01:13:03;0.60;1.00
38938;DHT22;24727;51.974;20.868;2024-01-15T01:15:29;0.60;1.00
38938;DHT22;24727;51.974;20.868;2024-01-15T01:17:56;0.60;1.00
38938;DHT22;24727;51.974;20.868;2024-01-15T01:20:21;0.60;1.00
38938;DHT22;24727;51.974;20.868;2024-01-15T01:22:47;0.60;1.00
38938;DHT22;24727;51.974;20.868;2024-01-15T01:25:13;0.60;1.00
38938;DHT22;24727;51.974;20.868;2024-01-15T01:27:39;0.60;1.00
38938;DHT22;24727;51.974;20.868;2024-01-15T01:30:05;0.60;1.00
38938;DHT22;24727;51.974;20.868;2024-01-15T01:32:31;0.60;1.00
38938;DHT22;24727;51.974;20.868;2024-01-15T01:34:57;0.60;1.00
38938;DHT22;24727;51.974;20.868;2024-01-15T01:37:23;0.60;1.00
38938;DHT22;24727;51.974;20.868;2024-01-15T01:39:49;0.60;1.00
38938;DHT22;24727;51.974;20.868;2024-01-15T01:42:15;0.60;1.00
38938;DHT22;24727;51.974;20.868;2024-01-15T01:44:41;0.60;1.00
38938;DHT22;24727;51.974;20.868;2024-01-15T01:47:07;0.60;1.00
38938;DHT22;24727;51.974;20.868;2024-01-15T01:49:34;0.60;1.00
38938;DHT22;24727;51.974;20.868;2024-01-15T01:52:05;0.70;1.00
38938;DHT22;24727;51.974;20.868;2024-01-15T01:54:33;0.60;1.00
38938;DHT22;24727;51.974;20.868;2024-01-15T01:57:00;0.70;1.00
38938;DHT22;24727;51.974;20.868;2024-01-15T01:59:27;0.70;1.00
38938;DHT22;24727;51.974;20.868;2024-01-15T02:01:54;0.60;1.00
38938;DHT22;24727;51.974;20.868;2024-01-15T02:04:23;0.60;1.00
38938;DHT22;24727;51.974;20.868;2024-01-15T02:06:50;0.60;1.00
38938;DHT22;24727;51.974;20.868;2024-01-15T02:09:19;0.60;1.00
38938;DHT22;24727;51.974;20.868;2024-01-15T02:11:48;0.60;1.00
38938;DHT22;24727;51.974;20.868;2024-01-15T02:14:14;0.60;1.00
38938;DHT22;24727;51.974;20.868;2024-01-15T02:16:40;0.60;1.00
38938;DHT22;24727;51.974;20.868;2024-01-15T02:19:06;0.60;1.00
38938;DHT22;24727;51.974;20.868;2024-01-15T02:21:32;0.60;1.00
38938;DHT22;24727;51.974;20.868;2024-01-15T02:23:58;0.60;1.00
38938;DHT22;24727;51.974;20.868;2024-01-15T02:26:24;0.60;1.00
38938;DHT22;24727;51.974;20.868;2024-01-15T02:28:50;0.60;1.00
38938;DHT22;24727;51.974;20.868;2024-01-15T02:31:17;0.60;1.00
38938;DHT22;24727;51.974;20.868;2024-01-15T02:33:43;0.60;1.00
38938;DHT22;24727;51.974;20.868;2024-01-15T02:36:11;0.60;1.00
38938;DHT22;24727;51.974;20.868;2024-01-15T02:38:37;0.70;1.00
38938;DHT22;24727;51.974;20.868;2024-01-15T02:41:03;0.60;1.00
38938;DHT22;24727;51.974;20.868;2024-01-15T02:43:29;0.60;1.00
38938;DHT22;24727;51.974;20.868;2024-01-15T02:45:55;0.60;1.00
38938;DHT22;24727;51.974;20.868;2024-01-15T02:48:21;0.70;1.00
38938;DHT22;24727;51.974;20.868;2024-01-15T02:50:46;0.60;1.00
38938;DHT22;24727;51.974;20.868;2024-01-15T02:53:12;0.70;1.00
38938;DHT22;24727;51.974;20.868;2024-01-15T02:55:38;0.60;1.00
38938;DHT22;24727;51.974;20.868;2024-01-15T02:58:04;0.60;1.00
38938;DHT22;24727;51.974;20.868;2024-01-15T03:00:30;0.60;1.00
38938;DHT22;24727;51.974;20.868;2024-01-15T03:02:56;0.60;1.00
38938;DHT22;24727;51.974;20.868;2024-01-15T03:05:22;0.50;1.00
38938;DHT22;24727;51.974;20.868;2024-01-15T03:07:48;0.50;1.00
38938;DHT22;24727;51.974;20.868;2024-01-15T03:10:14;0.50;1.00
38938;DHT22;24727;51.974;20.868;2024-01-15T03:12:39;0.40;1.00
38938;DHT22;24727;51.974;20.868;2024-01-15T03:15:06;0.50;1.00
38938;DHT22;24727;51.974;20.868;2024-01-15T03:17:32;0.40;1.00
38938;DHT22;24727;51.974;20.868;2024-01-15T03:19:57;0.40;1.00
38938;DHT22;24727;51.974;20.868;2024-01-15T03:22:23;0.60;1.00
38938;DHT22;24727;51.974;20.868;2024-01-15T03:24:49;0.60;1.00
38938;DHT22;24727;51.974;20.868;2024-01-15T03:27:15;0.50;1.00
38938;DHT22;24727;51.974;20.868;2024-01-15T03:29:41;0.50;1.00
38938;DHT22;24727;51.974;20.868;2024-01-15T03:32:07;0.40;1.00
38938;DHT22;24727;51.974;20.868;2024-01-15T03:34:33;0.50;1.00
38938;DHT22;24727;51.974;20.868;2024-01-15T03:36:59;0.50;1.00
38938;DHT22;24727;51.974;20.868;2024-01-15T03:39:25;0.50;1.00
38938;DHT22;24727;51.974;20.868;2024-01-15T03:41:51;0.40;1.00
38938;DHT22;24727;51.974;20.868;2024-01-15T03:44:17;0.40;1.00
38938;DHT22;24727;51.974;20.868;2024-01-15T03:46:43;0.50;1.00
38938;DHT22;24727;51.974;20.868;2024-01-15T03:49:08;0.40;1.00
38938;DHT22;24727;51.974;20.868;2024-01-15T03:51:34;0.40;1.00
38938;DHT22;24727;51.974;20.868;2024-01-15T03:54:00;0.30;1.00
38938;DHT22;24727;51.974;20.868;2024-01-15T03:56:26;0.40;1.00
38938;DHT22;24727;51.974;20.868;2024-01-15T03:58:52;0.40;1.00
38938;DHT22;24727;51.974;20.868;2024-01-15T04:01:17;0.40;1.00
38938;DHT22;24727;51.974;20.868;2024-01-15T04:03:43;0.40;1.00
38938;DHT22;24727;51.974;20.868;2024-01-15T04:06:09;0.40;1.00
38938;DHT22;24727;51.974;20.868;2024-01-15T04:08:35;0.40;1.00
38938;DHT22;24727;51.974;20.868;2024-01-15T04:11:01;0.40;1.00
38938;DHT22;24727;51.974;20.868;2024-01-15T04:13:27;0.40;1.00
38938;DHT22;24727;51.974;20.868;2024-01-15T04:15:53;0.40;1.00
38938;DHT22;24727;51.974;20.868;2024-01-15T04:18:19;0.40;1.00
38938;DHT22;24727;51.974;20.868;2024-01-15T04:20:45;0.40;1.00
38938;DHT22;24727;51.974;20.868;2024-01-15T04:23:10;0.50;1.00
38938;DHT22;24727;51.974;20.868;2024-01-15T04:25:36;0.50;1.00
38938;DHT22;24727;51.974;20.868;2024-01-15T04:28:02;0.40;1.00
38938;DHT22;24727;51.974;20.868;2024-01-15T04:30:28;0.40;1.00
38938;DHT22;24727;51.974;20.868;2024-01-15T04:32:54;0.40;1.00
38938;DHT22;24727;51.974;20.868;2024-01-15T04:35:20;0.40;1.00
38938;DHT22;24727;51.974;20.868;2024-01-15T04:37:46;0.50;1.00
38938;DHT22;24727;51.974;20.868;2024-01-15T04:40:11;0.50;1.00
38938;DHT22;24727;51.974;20.868;2024-01-15T04:42:37;0.40;1.00
38938;DHT22;24727;51.974;20.868;2024-01-15T04:45:03;0.40;1.00
38938;DHT22;24727;51.974;20.868;2024-01-15T04:47:29;0.40;1.00
38938;DHT22;24727;51.974;20.868;2024-01-15T04:49:55;0.40;1.00
38938;DHT22;24727;51.974;20.868;2024-01-15T04:52:21;0.40;1.00
38938;DHT22;24727;51.974;20.868;2024-01-15T04:54:47;0.40;1.00
38938;DHT22;24727;51.974;20.868;2024-01-15T04:57:13;0.40;1.00
38938;DHT22;24727;51.974;20.868;2024-01-15T04:59:39;0.40;1.00
38938;DHT22;24727;51.974;20.868;2024-01-15T05:02:05;0.50;1.00
38938;DHT22;24727;51.974;20.868;2024-01-15T05:04:31;0.50;1.00
38938;DHT22;24727;51.974;20.868;2024-01-15T05:06:56;0.50;1.00
38938;DHT22;24727;51.974;20.868;2024-01-15T05:09:22;0.50;1.00
38938;DHT22;24727;51.974;20.868;2024-01-15T05:11:48;0.50;1.00
38938;DHT22;24727;51.974;20.868;2024-01-15T05:14:14;0.50;1.00
38938;DHT22;24727;51.974;20.868;2024-01-15T05:16:46;0.50;1.00
38938;DHT22;24727;51.974;20.868;2024-01-15T05:19:12;0.50;1.00
38938;DHT22;24727;51.974;20.868;2024-01-15T05:21:38;0.50;1.00
38938;DHT22;24727;51.974;20.868;2024-01-15T05:24:04;0.50;1.00
38938;DHT22;24727;51.974;20.868;2024-01-15T05:26:29;0.50;1.00
38938;DHT22;24727;51.974;20.868;2024-01-15T05:28:55;0.50;1.00
38938;DHT22;24727;51.974;20.868;2024-01-15T05:31:21;0.50;1.00
38938;DHT22;24727;51.974;20.868;2024-01-15T05:33:47;0.60;1.00
38938;DHT22;24727;51.974;20.868;2024-01-15T05:36:13;0.50;1.00
38938;DHT22;24727;51.974;20.868;2024-01-15T05:38:39;0.50;1.00
38938;DHT22;24727;51.974;20.868;2024-01-15T05:41:05;0.50;1.00
38938;DHT22;24727;51.974;20.868;2024-01-15T05:43:31;0.50;1.00
38938;DHT22;24727;51.974;20.868;2024-01-15T05:45:57;0.50;1.00
38938;DHT22;24727;51.974;20.868;2024-01-15T05:48:23;0.60;1.00
38938;DHT22;24727;51.974;20.868;2024-01-15T05:50:49;0.60;1.00
38938;DHT22;24727;51.974;20.868;2024-01-15T05:53:15;0.60;1.00
38938;DHT22;24727;51.974;20.868;2024-01-15T05:55:41;0.60;1.00
38938;DHT22;24727;51.974;20.868;2024-01-15T05:58:06;0.60;1.00
38938;DHT22;24727;51.974;20.868;2024-01-15T06:00:32;0.60;1.00
38938;DHT22;24727;51.974;20.868;2024-01-15T06:03:00;0.60;1.00
38938;DHT22;24727;51.974;20.868;2024-01-15T06:05:26;0.60;1.00
38938;DHT22;24727;51.974;20.868;2024-01-15T06:07:52;0.60;1.00
38938;DHT22;24727;51.974;20.868;2024-01-15T06:10:18;0.60;1.00
38938;DHT22;24727;51.974;20.868;2024-01-15T06:12:44;0.60;1.00
38938;DHT22;24727;51.974;20.868;2024-01-15T06:15:10;0.60;1.00
38938;DHT22;24727;51.974;20.868;2024-01-15T06:17:36;0.70;1.00
38938;DHT22;24727;51.974;20.868;2024-01-15T06:20:03;0.60;1.00
38938;DHT22;24727;51.974;20.868;2024-01-15T06:22:29;0.70;1.00
38938;DHT22;24727;51.974;20.868;2024-01-15T06:24:55;0.60;1.00
38938;DHT22;24727;51.974;20.868;2024-01-15T06:27:22;0.60;1.00
38938;DHT22;24727;51.974;20.868;2024-01-15T06:29:47;0.70;1.00
38938;DHT22;24727;51.974;20.868;2024-01-15T06:32:13;0.60;1.00
38938;DHT22;24727;51.974;20.868;2024-01-15T06:34:39;0.60;1.00
38938;DHT22;24727;51.974;20.868;2024-01-15T06:37:06;0.60;1.00
38938;DHT22;24727;51.974;20.868;2024-01-15T06:39:32;0.70;1.00
38938;DHT22;24727;51.974;20.868;2024-01-15T06:41:57;0.60;1.00
38938;DHT22;24727;51.974;20.868;2024-01-15T06:44:23;0.60;1.00
38938;DHT22;24727;51.974;20.868;2024-01-15T06:46:49;0.70;1.00
38938;DHT22;24727;51.974;20.868;2024-01-15T06:49:15;0.70;1.00
38938;DHT22;24727;51.974;20.868;2024-01-15T06:51:41;0.70;1.00
38938;DHT22;24727;51.974;20.868;2024-01-15T06:54:07;0.70;1.00
38938;DHT22;24727;51.974;20.868;2024-01-15T06:56:33;0.70;1.00
38938;DHT22;24727;51.974;20.868;2024-01-15T06:58:59;0.70;1.00
38938;DHT22;24727;51.974;20.868;2024-01-15T07:01:24;0.70;1.00
38938;DHT22;24727;51.974;20.868;2024-01-15T07:03:50;0.70;1.00
38938;DHT22;24727;51.974;20.868;2024-01-15T07:06:16;0.70;1.00
38938;DHT22;24727;51.974;20.868;2024-01-15T07:08:42;0.70;1.00
38938;DHT22;24727;51.974;20.868;2024-01-15T07:11:08;0.70;1.00
38938;DHT22;24727;51.974;20.868;2024-01-15T07:13:36;0.70;1.00
38938;DHT22;24727;51.974;20.868;2024-01-15T07:16:03;0.70;1.00
38938;DHT22;24727;51.974;20.868;2024-01-15T07:18:29;0.60;1.00
38938;DHT22;24727;51.974;20.868;2024-01-15T07:20:55;0.60;1.00
38938;DHT22;24727;51.974;20.868;2024-01-15T07:23:23;0.60;1.00
38938;DHT22;24727;51.974;20.868;2024-01-15T07:25:49;0.60;1.00
38938;DHT22;24727;51.974;20.868;2024-01-15T07:28:15;0.60;1.00
38938;DHT22;24727;51.974;20.868;2024-01-15T07:30:41;0.60;1.00
38938;DHT22;24727;51.974;20.868;2024-01-15T07:33:07;0.50;1.00
38938;DHT22;24727;51.974;20.868;2024-01-15T07:35:33;0.50;1.00
38938;DHT22;24727;51.974;20.868;2024-01-15T07:37:59;0.60;1.00
38938;DHT22;24727;51.974;20.868;2024-01-15T07:40:24;0.50;1.00
38938;DHT22;24727;51.974;20.868;2024-01-15T07:42:51;0.40;1.00
38938;DHT22;24727;51.974;20.868;2024-01-15T07:45:17;0.40;1.00
38938;DHT22;24727;51.974;20.868;2024-01-15T07:47:43;0.40;1.00
38938;DHT22;24727;51.974;20.868;2024-01-15T07:50:10;0.40;1.00
38938;DHT22;24727;51.974;20.868;2024-01-15T07:52:36;0.50;1.00
38938;DHT22;24727;51.974;20.868;2024-01-15T07:55:02;0.60;1.00
38938;DHT22;24727;51.974;20.868;2024-01-15T07:57:30;0.70;1.00
38938;DHT22;24727;51.974;20.868;2024-01-15T07:59:56;0.80;1.00
38938;DHT22;24727;51.974;20.868;2024-01-15T08:02:22;0.80;1.00
38938;DHT22;24727;51.974;20.868;2024-01-15T08:04:48;0.70;1.00
38938;DHT22;24727;51.974;20.868;2024-01-15T08:07:14;0.60;1.00
38938;DHT22;24727;51.974;20.868;2024-01-15T08:09:40;0.50;1.00
38938;DHT22;24727;51.974;20.868;2024-01-15T08:12:06;0.50;1.00
38938;DHT22;24727;51.974;20.868;2024-01-15T08:14:32;0.40;1.00
38938;DHT22;24727;51.974;20.868;2024-01-15T08:16:58;0.40;1.00
38938;DHT22;24727;51.974;20.868;2024-01-15T08:19:24;0.40;1.00
38938;DHT22;24727;51.974;20.868;2024-01-15T08:21:50;0.40;1.00
38938;DHT22;24727;51.974;20.868;2024-01-15T08:24:16;0.40;1.00
38938;DHT22;24727;51.974;20.868;2024-01-15T08:26:42;0.40;1.00
38938;DHT22;24727;51.974;20.868;2024-01-15T08:29:08;0.40;1.00
38938;DHT22;24727;51.974;20.868;2024-01-15T08:31:34;0.40;1.00
38938;DHT22;24727;51.974;20.868;2024-01-15T08:34:00;0.40;1.00
38938;DHT22;24727;51.974;20.868;2024-01-15T08:36:27;0.40;1.00
38938;DHT22;24727;51.974;20.868;2024-01-15T08:38:55;0.30;1.00
38938;DHT22;24727;51.974;20.868;2024-01-15T08:41:21;0.40;1.00
38938;DHT22;24727;51.974;20.868;2024-01-15T08:43:47;0.40;1.00
38938;DHT22;24727;51.974;20.868;2024-01-15T08:46:13;0.50;1.00
38938;DHT22;24727;51.974;20.868;2024-01-15T08:48:39;0.60;1.00
38938;DHT22;24727;51.974;20.868;2024-01-15T08:51:05;0.70;1.00
38938;DHT22;24727;51.974;20.868;2024-01-15T08:53:31;0.70;1.00
38938;DHT22;24727;51.974;20.868;2024-01-15T08:55:58;0.70;1.00
38938;DHT22;24727;51.974;20.868;2024-01-15T08:58:24;0.70;1.00
38938;DHT22;24727;51.974;20.868;2024-01-15T09:00:51;0.90;1.00
38938;DHT22;24727;51.974;20.868;2024-01-15T09:03:17;0.90;1.00
38938;DHT22;24727;51.974;20.868;2024-01-15T09:05:43;0.90;1.00
38938;DHT22;24727;51.974;20.868;2024-01-15T09:08:08;0.90;1.00
38938;DHT22;24727;51.974;20.868;2024-01-15T09:10:34;1.00;1.00
38938;DHT22;24727;51.974;20.868;2024-01-15T09:13:00;1.00;1.00
38938;DHT22;24727;51.974;20.868;2024-01-15T09:15:26;1.00;1.00
38938;DHT22;24727;51.974;20.868;2024-01-15T09:17:53;1.10;1.00
38938;DHT22;24727;51.974;20.868;2024-01-15T09:20:18;1.20;1.00
38938;DHT22;24727;51.974;20.868;2024-01-15T09:22:44;1.30;1.00
38938;DHT22;24727;51.974;20.868;2024-01-15T09:25:11;1.40;1.00
38938;DHT22;24727;51.974;20.868;2024-01-15T09:27:37;1.40;1.00
38938;DHT22;24727;51.974;20.868;2024-01-15T09:30:04;1.30;99.90
38938;DHT22;24727;51.974;20.868;2024-01-15T09:32:30;1.40;99.90
38938;DHT22;24727;51.974;20.868;2024-01-15T09:34:56;1.40;99.90
38938;DHT22;24727;51.974;20.868;2024-01-15T09:37:22;1.40;99.90
38938;DHT22;24727;51.974;20.868;2024-01-15T09:39:49;1.40;99.90
38938;DHT22;24727;51.974;20.868;2024-01-15T09:42:16;1.40;99.90
38938;DHT22;24727;51.974;20.868;2024-01-15T09:44:42;1.40;99.90
38938;DHT22;24727;51.974;20.868;2024-01-15T09:47:08;1.50;99.90
38938;DHT22;24727;51.974;20.868;2024-01-15T09:49:34;1.60;99.90
38938;DHT22;24727;51.974;20.868;2024-01-15T09:52:01;1.60;99.90
38938;DHT22;24727;51.974;20.868;2024-01-15T09:54:27;1.50;99.90
38938;DHT22;24727;51.974;20.868;2024-01-15T09:56:54;1.60;99.90
38938;DHT22;24727;51.974;20.868;2024-01-15T09:59:22;1.70;99.90
38938;DHT22;24727;51.974;20.868;2024-01-15T10:01:50;1.70;99.90
38938;DHT22;24727;51.974;20.868;2024-01-15T10:04:17;1.70;99.90
38938;DHT22;24727;51.974;20.868;2024-01-15T10:06:45;1.70;99.90
38938;DHT22;24727;51.974;20.868;2024-01-15T10:09:12;1.70;99.90
38938;DHT22;24727;51.974;20.868;2024-01-15T10:11:42;1.70;99.90
38938;DHT22;24727;51.974;20.868;2024-01-15T10:14:12;1.70;99.90
38938;DHT22;24727;51.974;20.868;2024-01-15T10:16:41;1.60;99.90
38938;DHT22;24727;51.974;20.868;2024-01-15T10:19:10;1.50;99.90
38938;DHT22;24727;51.974;20.868;2024-01-15T10:21:37;1.60;99.90
38938;DHT22;24727;51.974;20.868;2024-01-15T10:24:03;1.50;99.90
38938;DHT22;24727;51.974;20.868;2024-01-15T10:26:30;1.50;99.90
38938;DHT22;24727;51.974;20.868;2024-01-15T10:28:58;1.40;1.00
38938;DHT22;24727;51.974;20.868;2024-01-15T10:31:24;1.40;99.90
38938;DHT22;24727;51.974;20.868;2024-01-15T10:33:51;1.50;99.90
38938;DHT22;24727;51.974;20.868;2024-01-15T10:36:17;1.50;99.90
38938;DHT22;24727;51.974;20.868;2024-01-15T10:38:44;1.50;99.90
38938;DHT22;24727;51.974;20.868;2024-01-15T10:41:11;1.40;99.90
38938;DHT22;24727;51.974;20.868;2024-01-15T10:43:38;1.40;99.90
38938;DHT22;24727;51.974;20.868;2024-01-15T10:46:03;1.40;99.90
38938;DHT22;24727;51.974;20.868;2024-01-15T10:48:30;1.40;1.00
38938;DHT22;24727;51.974;20.868;2024-01-15T10:51:00;1.40;99.90
38938;DHT22;24727;51.974;20.868;2024-01-15T10:53:26;1.40;99.90
38938;DHT22;24727;51.974;20.868;2024-01-15T10:55:54;1.50;99.90
38938;DHT22;24727;51.974;20.868;2024-01-15T10:58:21;1.60;99.90
38938;DHT22;24727;51.974;20.868;2024-01-15T11:00:49;1.60;99.90
38938;DHT22;24727;51.974;20.868;2024-01-15T11:03:15;1.60;99.90
38938;DHT22;24727;51.974;20.868;2024-01-15T11:05:43;1.50;99.90
38938;DHT22;24727;51.974;20.868;2024-01-15T11:08:09;1.50;99.90
38938;DHT22;24727;51.974;20.868;2024-01-15T11:10:40;1.50;99.90
38938;DHT22;24727;51.974;20.868;2024-01-15T11:13:39;1.50;99.90
38938;DHT22;24727;51.974;20.868;2024-01-15T11:16:11;1.60;99.90
38938;DHT22;24727;51.974;20.868;2024-01-15T11:18:40;1.60;1.00
38938;DHT22;24727;51.974;20.868;2024-01-15T11:23:48;1.70;1.00
38938;DHT22;24727;51.974;20.868;2024-01-15T11:26:30;1.80;99.90
38938;DHT22;24727;51.974;20.868;2024-01-15T11:28:56;1.70;99.90
38938;DHT22;24727;51.974;20.868;2024-01-15T11:34:10;1.70;99.90
38938;DHT22;24727;51.974;20.868;2024-01-15T11:39:39;1.60;99.90
38938;DHT22;24727;51.974;20.868;2024-01-15T11:42:06;1.60;99.90
38938;DHT22;24727;51.974;20.868;2024-01-15T11:44:31;1.60;99.90
38938;DHT22;24727;51.974;20.868;2024-01-15T11:52:05;1.50;99.90
38938;DHT22;24727;51.974;20.868;2024-01-15T11:54:33;1.40;99.90
38938;DHT22;24727;51.974;20.868;2024-01-15T11:57:08;1.20;1.00
38938;DHT22;24727;51.974;20.868;2024-01-15T11:59:35;1.00;1.00
38938;DHT22;24727;51.974;20.868;2024-01-15T12:02:02;0.80;1.00
38938;DHT22;24727;51.974;20.868;2024-01-15T12:04:28;0.80;1.00
38938;DHT22;24727;51.974;20.868;2024-01-15T12:06:54;0.80;1.00
38938;DHT22;24727;51.974;20.868;2024-01-15T12:09:20;0.80;1.00
38938;DHT22;24727;51.974;20.868;2024-01-15T12:11:54;0.90;1.00
38938;DHT22;24727;51.974;20.868;2024-01-15T12:14:24;0.90;1.00
38938;DHT22;24727;51.974;20.868;2024-01-15T12:16:52;1.00;1.00
38938;DHT22;24727;51.974;20.868;2024-01-15T12:19:19;1.00;1.00
38938;DHT22;24727;51.974;20.868;2024-01-15T12:21:45;1.00;1.00
38938;DHT22;24727;51.974;20.868;2024-01-15T12:24:10;1.10;1.00
38938;DHT22;24727;51.974;20.868;2024-01-15T12:26:36;1.00;1.00
38938;DHT22;24727;51.974;20.868;2024-01-15T12:29:02;1.00;1.00
38938;DHT22;24727;51.974;20.868;2024-01-15T12:31:29;1.00;1.00
38938;DHT22;24727;51.974;20.868;2024-01-15T12:33:56;1.00;1.00
38938;DHT22;24727;51.974;20.868;2024-01-15T12:36:22;1.00;1.00
38938;DHT22;24727;51.974;20.868;2024-01-15T12:38:48;1.00;1.00
38938;DHT22;24727;51.974;20.868;2024-01-15T12:41:14;1.00;1.00
38938;DHT22;24727;51.974;20.868;2024-01-15T12:43:40;1.00;1.00
38938;DHT22;24727;51.974;20.868;2024-01-15T12:46:06;1.00;1.00
38938;DHT22;24727;51.974;20.868;2024-01-15T12:48:32;1.00;1.00
38938;DHT22;24727;51.974;20.868;2024-01-15T12:50:58;1.00;1.00
38938;DHT22;24727;51.974;20.868;2024-01-15T12:53:24;1.00;1.00
38938;DHT22;24727;51.974;20.868;2024-01-15T12:55:50;0.80;1.00
38938;DHT22;24727;51.974;20.868;2024-01-15T12:58:15;0.60;1.00
38938;DHT22;24727;51.974;20.868;2024-01-15T13:00:41;0.40;1.00
38938;DHT22;24727;51.974;20.868;2024-01-15T13:03:07;0.30;1.00
38938;DHT22;24727;51.974;20.868;2024-01-15T13:05:33;0.20;1.00
38938;DHT22;24727;51.974;20.868;2024-01-15T13:08:01;0.20;1.00
38938;DHT22;24727;51.974;20.868;2024-01-15T13:10:29;0.20;1.00
38938;DHT22;24727;51.974;20.868;2024-01-15T13:12:56;0.20;1.00
38938;DHT22;24727;51.974;20.868;2024-01-15T13:15:21;0.20;1.00
38938;DHT22;24727;51.974;20.868;2024-01-15T13:17:47;0.20;1.00
38938;DHT22;24727;51.974;20.868;2024-01-15T13:20:14;0.30;1.00
38938;DHT22;24727;51.974;20.868;2024-01-15T13:22:41;0.40;1.00
38938;DHT22;24727;51.974;20.868;2024-01-15T13:25:09;0.40;1.00
38938;DHT22;24727;51.974;20.868;2024-01-15T13:27:35;0.40;1.00
38938;DHT22;24727;51.974;20.868;2024-01-15T13:30:01;0.40;1.00
38938;DHT22;24727;51.974;20.868;2024-01-15T13:32:28;0.40;1.00
38938;DHT22;24727;51.974;20.868;2024-01-15T13:34:59;0.40;1.00
38938;DHT22;24727;51.974;20.868;2024-01-15T13:37:25;0.50;1.00
38938;DHT22;24727;51.974;20.868;2024-01-15T13:39:51;0.50;1.00
38938;DHT22;24727;51.974;20.868;2024-01-15T13:42:18;0.40;1.00
38938;DHT22;24727;51.974;20.868;2024-01-15T13:44:44;0.50;1.00
38938;DHT22;24727;51.974;20.868;2024-01-15T13:47:09;0.40;1.00
38938;DHT22;24727;51.974;20.868;2024-01-15T13:49:36;0.40;1.00
38938;DHT22;24727;51.974;20.868;2024-01-15T13:52:03;0.40;1.00
38938;DHT22;24727;51.974;20.868;2024-01-15T13:54:29;0.40;1.00
38938;DHT22;24727;51.974;20.868;2024-01-15T13:56:57;0.30;1.00
38938;DHT22;24727;51.974;20.868;2024-01-15T13:59:24;0.30;1.00
38938;DHT22;24727;51.974;20.868;2024-01-15T14:01:50;0.30;1.00
38938;DHT22;24727;51.974;20.868;2024-01-15T14:04:16;0.30;1.00
38938;DHT22;24727;51.974;20.868;2024-01-15T14:06:42;0.30;1.00
38938;DHT22;24727;51.974;20.868;2024-01-15T14:09:08;0.30;1.00
38938;DHT22;24727;51.974;20.868;2024-01-15T14:11:36;0.30;1.00
38938;DHT22;24727;51.974;20.868;2024-01-15T14:14:03;0.30;1.00
38938;DHT22;24727;51.974;20.868;2024-01-15T14:16:29;0.40;1.00
38938;DHT22;24727;51.974;20.868;2024-01-15T14:18:55;0.30;1.00
38938;DHT22;24727;51.974;20.868;2024-01-15T14:21:21;0.30;1.00
38938;DHT22;24727;51.974;20.868;2024-01-15T14:23:47;0.20;1.00
38938;DHT22;24727;51.974;20.868;2024-01-15T14:26:13;0.10;1.00
38938;DHT22;24727;51.974;20.868;2024-01-15T14:28:39;0.20;1.00
38938;DHT22;24727;51.974;20.868;2024-01-15T14:31:05;0.20;1.00
38938;DHT22;24727;51.974;20.868;2024-01-15T14:33:31;0.20;1.00
38938;DHT22;24727;51.974;20.868;2024-01-15T14:35:57;0.30;1.00
38938;DHT22;24727;51.974;20.868;2024-01-15T14:38:23;0.20;1.00
38938;DHT22;24727;51.974;20.868;2024-01-15T14:40:49;0.30;1.00
38938;DHT22;24727;51.974;20.868;2024-01-15T14:43:15;0.30;1.00
38938;DHT22;24727;51.974;20.868;2024-01-15T14:45:41;0.30;1.00
38938;DHT22;24727;51.974;20.868;2024-01-15T14:48:07;0.40;1.00
38938;DHT22;24727;51.974;20.868;2024-01-15T14:50:33;0.30;1.00
38938;DHT22;24727;51.974;20.868;2024-01-15T14:52:58;0.40;1.00
38938;DHT22;24727;51.974;20.868;2024-01-15T14:55:24;0.30;1.00
38938;DHT22;24727;51.974;20.868;2024-01-15T14:57:50;0.30;1.00
38938;DHT22;24727;51.974;20.868;2024-01-15T15:00:18;0.30;1.00
38938;DHT22;24727;51.974;20.868;2024-01-15T15:02:44;0.30;1.00
38938;DHT22;24727;51.974;20.868;2024-01-15T15:05:10;0.30;1.00
38938;DHT22;24727;51.974;20.868;2024-01-15T15:07:36;0.20;1.00
38938;DHT22;24727;51.974;20.868;2024-01-15T15:10:03;0.20;1.00
38938;DHT22;24727;51.974;20.868;2024-01-15T15:12:32;0.20;1.00
38938;DHT22;24727;51.974;20.868;2024-01-15T15:14:58;0.20;1.00
38938;DHT22;24727;51.974;20.868;2024-01-15T15:17:23;0.20;1.00
38938;DHT22;24727;51.974;20.868;2024-01-15T15:19:49;0.20;1.00
38938;DHT22;24727;51.974;20.868;2024-01-15T15:22:19;0.10;1.00
38938;DHT22;24727;51.974;20.868;2024-01-15T15:24:46;0.10;1.00
38938;DHT22;24727;51.974;20.868;2024-01-15T15:27:12;0.10;1.00
38938;DHT22;24727;51.974;20.868;2024-01-15T15:29:38;0.10;1.00
38938;DHT22;24727;51.974;20.868;2024-01-15T15:32:04;0.10;1.00
38938;DHT22;24727;51.974;20.868;2024-01-15T15:34:30;0.10;1.00
38938;DHT22;24727;51.974;20.868;2024-01-15T15:36:55;0.10;1.00
38938;DHT22;24727;51.974;20.868;2024-01-15T15:39:21;0.10;1.00
38938;DHT22;24727;51.974;20.868;2024-01-15T15:41:48;0.10;1.00
38938;DHT22;24727;51.974;20.868;2024-01-15T15:44:15;0.10;1.00
38938;DHT22;24727;51.974;20.868;2024-01-15T15:46:43;0.20;1.00
38938;DHT22;24727;51.974;20.868;2024-01-15T15:49:09;0.20;1.00
38938;DHT22;24727;51.974;20.868;2024-01-15T15:51:35;0.20;1.00
38938;DHT22;24727;51.974;20.868;2024-01-15T15:57:08;0.30;1.00